createdAt,value
2022-09-09T00:00:24.242Z,56.34
2022-09-09T00:03:03.478Z,56.54
2022-09-09T00:05:40.130Z,56.34
2022-09-09T00:08:21.098Z,56.40
2022-09-09T00:10:56.581Z,56.18
2022-09-09T00:13:33.490Z,56.12
2022-09-09T00:16:13.450Z,56.09
2022-09-09T00:18:54.196Z,56.17
2022-09-09T00:21:27.513Z,56.04
2022-09-09T00:23:57.109Z,56.01
2022-09-09T00:26:35.006Z,56.00
2022-09-09T00:29:17.298Z,55.59
2022-09-09T00:31:47.839Z,55.68
2022-09-09T00:34:22.500Z,55.62
2022-09-09T00:36:53.307Z,55.47
2022-09-09T00:39:37.166Z,55.44
2022-09-09T00:42:16.074Z,55.68
2022-09-09T00:44:58.363Z,55.91
2022-09-09T00:47:46.300Z,55.65
2022-09-09T00:50:39.640Z,55.92
2022-09-09T00:53:30.948Z,55.87
2022-09-09T00:56:11.989Z,56.08
2022-09-09T00:58:40.223Z,56.00
2022-09-09T01:01:14.109Z,56.09
2022-09-09T01:03:50.865Z,56.05
2022-09-09T01:06:31.750Z,56.08
2022-09-09T01:09:19.323Z,55.96
2022-09-09T01:12:03.768Z,56.18
2022-09-09T01:14:45.257Z,56.15
2022-09-09T01:17:20.315Z,56.23
2022-09-09T01:20:03.101Z,56.22
2022-09-09T01:22:39.203Z,56.16
2022-09-09T01:25:32.147Z,56.05
2022-09-09T01:28:05.858Z,56.22
2022-09-09T01:30:35.622Z,56.22
2022-09-09T01:33:04.549Z,56.03
2022-09-09T01:35:51.805Z,56.09
2022-09-09T01:38:20.665Z,55.97
2022-09-09T01:40:50.020Z,55.83
2022-09-09T01:43:20.239Z,55.87
2022-09-09T01:45:50.158Z,55.96
2022-09-09T01:48:19.006Z,55.97
2022-09-09T01:50:47.389Z,55.96
2022-09-09T01:53:18.333Z,55.98
2022-09-09T01:55:56.635Z,55.98
2022-09-09T01:58:37.520Z,55.93
2022-09-09T02:01:18.067Z,55.97
2022-09-09T02:03:54.415Z,55.98
2022-09-09T02:06:32.287Z,56.00
2022-09-09T02:09:04.852Z,56.12
2022-09-09T02:11:34.325Z,56.29
2022-09-09T02:14:10.952Z,56.36
2022-09-09T02:16:44.629Z,56.38
2022-09-09T02:19:18.076Z,56.21
2022-09-09T02:21:48.171Z,56.34
2022-09-09T02:24:18.215Z,56.37
2022-09-09T02:26:53.220Z,56.39
2022-09-09T02:29:29.007Z,56.42
2022-09-09T02:32:03.084Z,56.36
2022-09-09T02:34:34.948Z,56.47
2022-09-09T02:37:05.807Z,56.54
2022-09-09T02:39:34.046Z,56.59
2022-09-09T02:42:04.785Z,56.59
2022-09-09T02:44:34.636Z,56.50
2022-09-09T02:47:21.926Z,56.47
2022-09-09T02:50:04.691Z,56.63
2022-09-09T02:52:50.238Z,56.64
2022-09-09T02:55:26.685Z,56.69
2022-09-09T02:57:57.098Z,56.73
2022-09-09T03:00:29.215Z,56.73
2022-09-09T03:02:58.264Z,56.91
2022-09-09T03:05:27.210Z,56.75
2022-09-09T03:07:55.414Z,56.83
2022-09-09T03:10:24.182Z,56.88
2022-09-09T03:12:52.431Z,56.93
2022-09-09T03:15:20.885Z,56.89
2022-09-09T03:17:50.534Z,56.91
2022-09-09T03:20:18.931Z,56.92
2022-09-09T03:22:47.145Z,57.01
2022-09-09T03:25:15.628Z,57.12
2022-09-09T03:27:43.873Z,56.95
2022-09-09T03:30:13.125Z,56.87
2022-09-09T03:32:41.390Z,56.89
2022-09-09T03:35:11.366Z,56.88
2022-09-09T03:37:39.977Z,56.83
2022-09-09T03:40:10.849Z,56.76
2022-09-09T03:42:39.651Z,56.81
2022-09-09T03:45:11.601Z,56.77
2022-09-09T03:47:39.998Z,56.83
2022-09-09T03:50:12.031Z,56.79
2022-09-09T03:52:41.726Z,56.83
2022-09-09T03:55:10.858Z,56.89
2022-09-09T03:57:39.827Z,57.02
2022-09-09T04:00:11.325Z,56.95
2022-09-09T04:02:40.293Z,56.85
2022-09-09T04:05:10.922Z,56.90
2022-09-09T04:07:39.170Z,57.00
2022-09-09T04:10:09.694Z,56.97
2022-09-09T04:12:37.908Z,56.99
2022-09-09T04:15:07.796Z,56.94
2022-09-09T04:17:37.288Z,56.89
2022-09-09T04:20:06.241Z,56.86
2022-09-09T04:22:35.888Z,56.80
2022-09-09T04:25:04.219Z,56.83
2022-09-09T04:27:32.643Z,56.87
2022-09-09T04:30:00.880Z,56.60
2022-09-09T04:32:29.153Z,56.77
2022-09-09T04:34:57.474Z,56.86
2022-09-09T04:37:25.877Z,56.83
2022-09-09T04:39:55.540Z,56.69
2022-09-09T04:42:23.859Z,56.77
2022-09-09T04:44:52.067Z,56.85
2022-09-09T04:47:20.330Z,56.75
2022-09-09T04:49:48.561Z,56.89
2022-09-09T04:52:18.231Z,56.96
2022-09-09T04:54:46.989Z,56.99
2022-09-09T04:57:18.776Z,56.91
2022-09-09T04:59:47.250Z,56.85
2022-09-09T05:02:15.579Z,56.94
2022-09-09T05:04:43.911Z,56.95
2022-09-09T05:07:12.219Z,57.03
2022-09-09T05:09:40.491Z,57.00
2022-09-09T05:12:09.315Z,57.18
2022-09-09T05:14:39.167Z,57.04
2022-09-09T05:17:07.431Z,57.24
2022-09-09T05:19:35.703Z,57.31
2022-09-09T05:22:04.711Z,57.37
2022-09-09T05:24:34.254Z,57.60
2022-09-09T05:27:03.489Z,57.50
2022-09-09T05:29:34.342Z,57.64
2022-09-09T05:32:05.154Z,57.80
2022-09-09T05:34:33.409Z,57.81
2022-09-09T05:37:01.763Z,57.83
2022-09-09T05:39:30.099Z,57.83
2022-09-09T05:41:58.410Z,57.82
2022-09-09T05:44:28.640Z,57.88
2022-09-09T05:46:57.628Z,57.98
2022-09-09T05:49:27.482Z,58.16
2022-09-09T05:51:55.762Z,58.26
2022-09-09T05:54:25.151Z,58.40
2022-09-09T05:56:54.637Z,58.45
2022-09-09T05:59:24.267Z,58.45
2022-09-09T06:01:54.575Z,58.53
2022-09-09T06:04:25.304Z,58.29
2022-09-09T06:06:54.956Z,58.49
2022-09-09T06:09:23.876Z,58.44
2022-09-09T06:11:52.123Z,58.49
2022-09-09T06:14:20.440Z,58.51
2022-09-09T06:16:48.703Z,58.65
2022-09-09T06:19:17.051Z,58.83
2022-09-09T06:21:45.537Z,58.99
2022-09-09T06:24:18.321Z,59.38
2022-09-09T06:26:46.586Z,59.54
2022-09-09T06:29:14.906Z,59.54
2022-09-09T06:31:43.259Z,59.67
2022-09-09T06:34:11.663Z,60.01
2022-09-09T06:36:41.348Z,59.77
2022-09-09T06:39:14.668Z,59.45
2022-09-09T06:41:44.970Z,59.16
2022-09-09T06:44:13.751Z,59.08
2022-09-09T06:46:42.340Z,58.89
2022-09-09T06:49:11.390Z,58.54
2022-09-09T06:51:43.763Z,58.58
2022-09-09T06:54:13.535Z,58.40
2022-09-09T06:56:46.406Z,58.36
2022-09-09T06:59:14.976Z,58.29
2022-09-09T07:01:45.714Z,58.36
2022-09-09T07:04:14.476Z,58.08
2022-09-09T07:06:45.815Z,58.06
2022-09-09T07:09:17.280Z,57.90
2022-09-09T07:11:49.497Z,57.85
2022-09-09T07:14:18.658Z,57.89
2022-09-09T07:16:48.045Z,57.80
2022-09-09T07:19:16.715Z,57.77
2022-09-09T07:21:46.213Z,57.75
2022-09-09T07:24:14.417Z,57.86
2022-09-09T07:26:43.035Z,57.93
2022-09-09T07:29:19.840Z,58.19
2022-09-09T07:31:49.446Z,58.28
2022-09-09T07:34:17.999Z,58.32
2022-09-09T07:36:47.316Z,58.06
2022-09-09T07:39:18.365Z,58.22
2022-09-09T07:41:48.737Z,58.41
2022-09-09T07:44:22.398Z,58.54
2022-09-09T07:46:51.561Z,58.69
2022-09-09T07:49:26.246Z,58.73
2022-09-09T07:51:57.138Z,58.69
2022-09-09T07:54:25.559Z,58.66
2022-09-09T07:56:54.615Z,59.22
2022-09-09T07:59:25.333Z,59.13
2022-09-09T08:01:55.958Z,59.17
2022-09-09T08:04:26.399Z,59.37
2022-09-09T08:06:58.213Z,59.49
2022-09-09T08:09:29.734Z,59.12
2022-09-09T08:11:59.426Z,59.14
2022-09-09T08:14:29.939Z,59.13
2022-09-09T08:16:58.207Z,59.46
2022-09-09T08:19:26.578Z,59.65
2022-09-09T08:21:55.113Z,59.36
2022-09-09T08:24:24.163Z,59.58
2022-09-09T08:26:52.418Z,59.40
2022-09-09T08:29:20.991Z,59.61
2022-09-09T08:31:53.867Z,59.81
2022-09-09T08:34:22.738Z,60.13
2022-09-09T08:36:52.577Z,60.33
2022-09-09T08:39:23.805Z,59.98
2022-09-09T08:42:33.487Z,59.82
2022-09-09T08:45:21.338Z,59.93
2022-09-09T08:48:10.917Z,59.73
2022-09-09T08:50:42.404Z,59.88
2022-09-09T08:53:18.455Z,59.78
2022-09-09T08:55:50.955Z,59.72
2022-09-09T08:58:22.304Z,59.57
2022-09-09T09:01:40.569Z,59.60
2022-09-09T09:04:28.746Z,59.62
2022-09-09T09:07:09.684Z,59.37
2022-09-09T09:09:46.912Z,59.57
2022-09-09T09:12:20.662Z,59.02
2022-09-09T09:14:50.706Z,59.07
2022-09-09T09:17:21.970Z,58.68
2022-09-09T09:19:52.142Z,59.07
2022-09-09T09:22:26.310Z,58.93
2022-09-09T09:24:57.712Z,59.27
2022-09-09T09:27:36.189Z,59.21
2022-09-09T09:30:25.670Z,59.15
2022-09-09T09:33:02.379Z,59.01
2022-09-09T09:35:31.961Z,59.36
2022-09-09T09:40:58.922Z,59.20
2022-09-09T09:43:30.415Z,58.97
2022-09-09T09:46:17.888Z,58.94
2022-09-09T09:48:47.347Z,58.66
2022-09-09T09:51:19.793Z,58.13
2022-09-09T09:53:48.078Z,58.64
2022-09-09T09:56:17.386Z,58.60
2022-09-09T09:58:54.494Z,58.14
2022-09-09T10:03:57.327Z,57.42
2022-09-09T10:06:39.114Z,57.33
2022-09-09T10:12:02.583Z,57.63
2022-09-09T10:14:39.209Z,57.64
2022-09-09T10:17:22.969Z,57.26
2022-09-09T10:20:07.404Z,57.53
2022-09-09T10:22:37.070Z,57.87
2022-09-09T10:25:24.010Z,57.54
2022-09-09T10:28:12.742Z,57.97
2022-09-09T10:30:56.618Z,57.59
2022-09-09T10:33:35.249Z,57.27
2022-09-09T10:36:15.688Z,57.54
2022-09-09T10:38:48.456Z,57.41
2022-09-09T10:41:22.426Z,56.77
2022-09-09T10:44:31.636Z,57.03
2022-09-09T10:47:35.778Z,56.66
2022-09-09T10:50:38.100Z,56.84
2022-09-09T10:53:21.663Z,56.67
2022-09-09T10:55:56.010Z,57.04
2022-09-09T10:58:30.501Z,56.96
2022-09-09T11:01:04.007Z,56.45
2022-09-09T11:03:34.383Z,56.86
2022-09-09T11:06:08.124Z,56.89
2022-09-09T11:08:40.835Z,57.15
2022-09-09T11:11:18.844Z,57.11
2022-09-09T11:13:52.473Z,57.11
2022-09-09T11:16:29.398Z,57.27
2022-09-09T11:19:03.898Z,56.89
2022-09-09T11:21:40.742Z,56.93
2022-09-09T11:24:17.607Z,57.47
2022-09-09T11:26:54.351Z,57.24
2022-09-09T11:30:05.132Z,57.67
2022-09-09T11:33:05.325Z,57.62
2022-09-09T11:35:44.607Z,57.59
2022-09-09T11:38:27.802Z,58.08
2022-09-09T11:41:02.732Z,58.01
2022-09-09T11:43:35.238Z,58.22
2022-09-09T11:46:04.959Z,57.83
2022-09-09T11:48:37.682Z,58.07
2022-09-09T11:51:16.093Z,57.61
2022-09-09T11:53:53.813Z,57.66
2022-09-09T11:56:32.350Z,57.78
2022-09-09T11:59:05.054Z,57.54
2022-09-09T12:01:39.190Z,57.89
2022-09-09T12:04:29.921Z,57.56
2022-09-09T12:07:03.511Z,57.39
2022-09-09T12:09:47.586Z,57.82
2022-09-09T12:12:41.731Z,57.07
2022-09-09T12:15:30.235Z,57.25
2022-09-09T12:18:03.874Z,56.64
2022-09-09T12:20:38.399Z,56.67
2022-09-09T12:23:33.295Z,56.40
2022-09-09T12:26:18.608Z,56.38
2022-09-09T12:28:58.198Z,55.35
2022-09-09T12:31:35.619Z,55.94
2022-09-09T12:34:13.164Z,55.03
2022-09-09T12:36:48.708Z,55.77
2022-09-09T12:39:33.331Z,54.05
2022-09-09T12:42:02.314Z,53.76
2022-09-09T12:44:30.612Z,54.08
2022-09-09T12:47:04.566Z,53.08
2022-09-09T12:49:36.585Z,52.75
2022-09-09T12:52:10.916Z,52.78
2022-09-09T12:54:39.897Z,53.84
2022-09-09T12:57:13.480Z,52.72
2022-09-09T12:59:46.110Z,52.64
2022-09-09T13:02:23.027Z,50.82
2022-09-09T13:04:52.546Z,51.21
2022-09-09T13:07:22.626Z,51.49
2022-09-09T13:09:51.885Z,51.11
2022-09-09T13:12:24.027Z,50.91
2022-09-09T13:14:57.156Z,50.78
2022-09-09T13:17:30.026Z,51.03
2022-09-09T13:19:59.294Z,51.39
2022-09-09T13:22:34.158Z,49.46
2022-09-09T13:25:06.732Z,49.46
2022-09-09T13:27:39.826Z,48.74
2022-09-09T13:30:25.228Z,48.54
2022-09-09T13:33:23.642Z,48.03
2022-09-09T13:35:56.456Z,48.47
2022-09-09T13:38:27.666Z,48.62
2022-09-09T13:41:03.249Z,48.74
2022-09-09T13:43:34.363Z,47.56
2022-09-09T13:46:04.873Z,46.62
2022-09-09T13:48:34.631Z,47.03
2022-09-09T13:51:06.833Z,46.90
2022-09-09T13:53:35.157Z,47.15
2022-09-09T13:56:03.786Z,46.15
2022-09-09T13:58:31.963Z,45.19
2022-09-09T14:01:00.492Z,44.74
2022-09-09T14:03:28.775Z,45.73
2022-09-09T14:05:58.822Z,45.79
2022-09-09T14:08:29.883Z,44.60
2022-09-09T14:11:00.489Z,44.40
2022-09-09T14:13:28.758Z,44.09
2022-09-09T14:15:57.591Z,43.50
2022-09-09T14:18:26.422Z,44.21
2022-09-09T14:20:54.969Z,43.73
2022-09-09T14:23:25.346Z,43.69
2022-09-09T14:25:54.073Z,44.08
2022-09-09T14:30:56.633Z,44.53
2022-09-09T14:33:25.747Z,44.52
2022-09-09T14:35:59.093Z,44.63
2022-09-09T14:38:32.869Z,45.04
2022-09-09T14:41:01.394Z,44.25
2022-09-09T14:43:30.970Z,44.70
2022-09-09T14:45:59.210Z,44.69
2022-09-09T14:48:27.446Z,44.95
2022-09-09T14:50:56.352Z,44.97
2022-09-09T14:53:24.629Z,44.70
2022-09-09T14:55:54.231Z,44.69
2022-09-09T14:58:22.444Z,44.60
2022-09-09T15:00:50.674Z,44.75
2022-09-09T15:03:18.928Z,44.63
2022-09-09T15:05:47.131Z,44.83
2022-09-09T15:08:17.728Z,44.41
2022-09-09T15:10:46.038Z,44.84
2022-09-09T15:13:18.104Z,44.64
2022-09-09T15:15:46.328Z,44.51
2022-09-09T15:18:16.915Z,44.56
2022-09-09T15:20:47.428Z,44.76
2022-09-09T15:23:16.276Z,44.63
2022-09-09T15:25:54.034Z,44.63
2022-09-09T15:28:24.442Z,44.25
2022-09-09T15:30:54.088Z,44.17
2022-09-09T15:33:24.493Z,44.65
2022-09-09T15:35:52.975Z,44.80
2022-09-09T15:38:21.173Z,45.11
2022-09-09T15:40:56.518Z,44.82
2022-09-09T15:43:26.123Z,44.56
2022-09-09T15:46:19.971Z,44.60
2022-09-09T15:48:52.405Z,44.78
2022-09-09T15:54:14.317Z,44.79
2022-09-09T15:56:43.191Z,44.58
2022-09-09T15:59:12.857Z,44.72
2022-09-09T16:01:43.304Z,44.77
2022-09-09T16:04:11.967Z,44.83
2022-09-09T16:06:40.420Z,45.13
2022-09-09T16:09:10.951Z,45.01
2022-09-09T16:11:41.445Z,45.14
2022-09-09T16:14:10.066Z,45.45
2022-09-09T16:16:40.011Z,45.46
2022-09-09T16:19:11.498Z,45.45
2022-09-09T16:21:42.751Z,45.38
2022-09-09T16:24:14.377Z,45.50
2022-09-09T16:26:46.228Z,45.31
2022-09-09T16:29:16.273Z,45.32
2022-09-09T16:31:46.813Z,44.83
2022-09-09T16:34:16.392Z,44.76
2022-09-09T16:36:45.941Z,44.96
2022-09-09T16:39:16.853Z,44.82
2022-09-09T16:41:48.210Z,44.76
2022-09-09T16:44:19.348Z,44.81
2022-09-09T16:46:55.609Z,45.02
2022-09-09T16:49:26.446Z,44.97
2022-09-09T16:51:54.742Z,44.81
2022-09-09T16:54:24.468Z,44.95
2022-09-09T16:56:52.702Z,44.98
2022-09-09T16:59:22.762Z,44.90
2022-09-09T17:01:54.469Z,45.00
2022-09-09T17:04:27.285Z,44.94
2022-09-09T17:06:58.203Z,45.41
2022-09-09T17:09:30.094Z,45.97
2022-09-09T17:11:59.413Z,46.36
2022-09-09T17:14:27.770Z,46.69
2022-09-09T17:17:09.160Z,47.04
2022-09-09T17:19:45.723Z,47.32
2022-09-09T17:22:17.328Z,47.10
2022-09-09T17:24:46.709Z,47.72
2022-09-09T17:27:15.033Z,48.39
2022-09-09T17:29:43.801Z,48.05
2022-09-09T17:32:13.437Z,48.35
2022-09-09T17:34:41.740Z,48.29
2022-09-09T17:37:10.194Z,48.03
2022-09-09T17:39:38.576Z,48.30
2022-09-09T17:42:08.401Z,48.19
2022-09-09T17:44:36.711Z,48.19
2022-09-09T17:47:07.080Z,48.57
2022-09-09T17:49:36.810Z,48.46
2022-09-09T17:52:05.169Z,48.50
2022-09-09T17:54:34.568Z,48.40
2022-09-09T17:57:02.941Z,48.98
2022-09-09T17:59:31.591Z,48.73
2022-09-09T18:02:00.286Z,49.07
2022-09-09T18:04:28.806Z,48.93
2022-09-09T18:06:59.302Z,48.76
2022-09-09T18:09:29.256Z,48.79
2022-09-09T18:12:00.152Z,49.00
2022-09-09T18:14:32.581Z,49.22
2022-09-09T18:17:04.000Z,49.09
2022-09-09T18:19:34.541Z,49.11
2022-09-09T18:22:06.899Z,49.66
2022-09-09T18:24:36.347Z,49.95
2022-09-09T18:27:04.958Z,49.73
2022-09-09T18:29:33.281Z,49.77
2022-09-09T18:32:01.649Z,49.93
2022-09-09T18:34:30.759Z,49.95
2022-09-09T18:36:59.157Z,50.03
2022-09-09T18:39:30.620Z,50.09
2022-09-09T18:42:01.440Z,50.22
2022-09-09T18:44:33.356Z,50.59
2022-09-09T18:47:02.882Z,50.51
2022-09-09T18:49:31.507Z,50.53
2022-09-09T18:51:59.769Z,50.74
2022-09-09T18:54:33.371Z,50.93
2022-09-09T18:57:02.117Z,51.17
2022-09-09T18:59:31.051Z,51.22
2022-09-09T19:01:59.786Z,51.26
2022-09-09T19:04:28.332Z,51.40
2022-09-09T19:06:58.770Z,51.53
2022-09-09T19:09:31.859Z,51.89
2022-09-09T19:12:01.286Z,51.71
2022-09-09T19:14:30.471Z,52.23
2022-09-09T19:16:58.943Z,52.15
2022-09-09T19:19:31.187Z,52.20
2022-09-09T19:22:00.126Z,52.21
2022-09-09T19:24:32.775Z,52.17
2022-09-09T19:27:06.776Z,52.19
2022-09-09T19:29:39.449Z,52.38
2022-09-09T19:34:57.196Z,52.72
2022-09-09T19:37:25.736Z,52.80
2022-09-09T19:39:55.471Z,52.79
2022-09-09T19:42:23.831Z,52.44
2022-09-09T19:44:52.425Z,52.50
2022-09-09T19:47:21.490Z,52.75
2022-09-09T19:49:50.499Z,52.56
2022-09-09T19:52:19.841Z,52.54
2022-09-09T19:54:48.433Z,52.91
2022-09-09T19:57:19.633Z,52.99
2022-09-09T19:59:48.123Z,52.84
2022-09-09T20:02:16.869Z,52.54
2022-09-09T20:04:45.475Z,52.94
2022-09-09T20:07:14.855Z,52.68
2022-09-09T20:09:43.217Z,52.93
2022-09-09T20:12:11.572Z,53.19
2022-09-09T20:14:41.246Z,53.19
2022-09-09T20:17:10.305Z,53.13
2022-09-09T20:19:39.766Z,53.15
2022-09-09T20:22:08.268Z,53.57
2022-09-09T20:24:38.080Z,53.59
2022-09-09T20:27:08.143Z,53.92
2022-09-09T20:29:37.625Z,53.57
2022-09-09T20:32:07.752Z,53.90
2022-09-09T20:34:36.105Z,54.18
2022-09-09T20:37:04.899Z,54.03
2022-09-09T20:39:33.515Z,54.24
2022-09-09T20:42:02.382Z,54.21
2022-09-09T20:44:31.426Z,54.35
2022-09-09T20:47:06.170Z,54.35
2022-09-09T20:49:36.271Z,54.50
2022-09-09T20:52:04.878Z,55.08
2022-09-09T20:54:35.196Z,55.13
2022-09-09T20:57:03.459Z,55.25
2022-09-09T20:59:32.323Z,55.10
2022-09-09T21:02:00.921Z,55.37
2022-09-09T21:04:29.754Z,55.38
2022-09-09T21:06:59.335Z,55.30
2022-09-09T21:09:27.650Z,54.96
2022-09-09T21:11:55.923Z,55.15
2022-09-09T21:14:24.295Z,55.08
2022-09-09T21:16:52.571Z,55.29
2022-09-09T21:19:20.926Z,55.14
2022-09-09T21:21:49.170Z,55.13
2022-09-09T21:24:18.862Z,55.60
2022-09-09T21:26:47.118Z,55.45
2022-09-09T21:29:15.325Z,55.24
2022-09-09T21:31:44.269Z,55.01
2022-09-09T21:34:13.251Z,54.88
2022-09-09T21:36:42.014Z,54.53
2022-09-09T21:39:10.300Z,54.80
2022-09-09T21:41:40.087Z,54.54
2022-09-09T21:44:09.600Z,54.82
2022-09-09T21:46:38.706Z,54.62
2022-09-09T21:49:07.081Z,54.50
2022-09-09T21:51:35.327Z,54.40
2022-09-09T21:54:03.696Z,54.26
2022-09-09T21:56:32.101Z,54.18
2022-09-09T21:59:04.056Z,54.44
2022-09-09T22:01:34.241Z,54.25
2022-09-09T22:04:02.978Z,53.91
2022-09-09T22:06:31.302Z,53.80
2022-09-09T22:09:00.577Z,53.81
2022-09-09T22:11:31.267Z,53.80
2022-09-09T22:14:02.168Z,54.19
2022-09-09T22:16:31.700Z,53.65
2022-09-09T22:19:02.493Z,53.94
2022-09-09T22:21:33.015Z,53.71
2022-09-09T22:24:04.735Z,54.00
2022-09-09T22:26:36.196Z,54.09
2022-09-09T22:29:07.343Z,54.28
2022-09-09T22:31:37.099Z,54.29
2022-09-09T22:34:06.782Z,54.11
2022-09-09T22:36:35.367Z,54.25
2022-09-09T22:39:03.697Z,54.31
2022-09-09T22:41:32.111Z,54.53
2022-09-09T22:44:00.349Z,54.56
2022-09-09T22:46:30.277Z,54.55
2022-09-09T22:48:59.265Z,54.52
2022-09-09T22:51:27.607Z,54.37
2022-09-09T22:53:57.235Z,54.27
2022-09-09T22:56:25.531Z,54.27
2022-09-09T22:58:56.299Z,54.52
2022-09-09T23:01:27.757Z,54.34
2022-09-09T23:03:59.442Z,54.06
2022-09-09T23:06:29.476Z,53.66
2022-09-09T23:09:00.524Z,53.90
2022-09-09T23:11:31.897Z,53.77
2022-09-09T23:14:02.268Z,53.82
2022-09-09T23:16:34.414Z,53.55
2022-09-09T23:19:04.067Z,53.49
2022-09-09T23:21:32.955Z,53.28
2022-09-09T23:24:01.743Z,53.39
2022-09-09T23:26:30.196Z,53.55
2022-09-09T23:29:00.094Z,53.15
2022-09-09T23:31:30.673Z,53.58
2022-09-09T23:34:00.088Z,53.55
2022-09-09T23:36:30.933Z,53.43
2022-09-09T23:39:02.114Z,53.69
2022-09-09T23:41:31.388Z,53.71
2022-09-09T23:44:00.897Z,53.75
2022-09-09T23:46:31.327Z,53.93
2022-09-09T23:49:00.358Z,54.06
2022-09-09T23:51:34.757Z,54.13
2022-09-09T23:54:05.023Z,54.63
2022-09-09T23:56:38.065Z,54.50
2022-09-09T23:59:06.963Z,54.58
